sensor_id;sensor_type;location;lat;lon;timestamp;P1;durP1;ratioP1;P2;durP2;ratioP2
11287;SDS011;5700;50.996;7.044;2023-06-01T00:02:09;3.38;;;1.42;;
11287;SDS011;5700;50.996;7.044;2023-06-01T00:05:12;3.97;;;1.92;;
11287;SDS011;5700;50.996;7.044;2023-06-01T00:08:13;3.00;;;1.70;;
11287;SDS011;5700;50.996;7.044;2023-06-01T00:11:15;5.80;;;1.70;;
11287;SDS011;5700;50.996;7.044;2023-06-01T00:14:16;2.90;;;1.50;;
11287;SDS011;5700;50.996;7.044;2023-06-01T00:17:20;4.22;;;1.70;;
11287;SDS011;5700;50.996;7.044;2023-06-01T00:20:22;4.50;;;1.75;;
11287;SDS011;5700;50.996;7.044;2023-06-01T00:23:24;4.47;;;1.75;;
11287;SDS011;5700;50.996;7.044;2023-06-01T00:26:26;3.17;;;1.55;;
11287;SDS011;5700;50.996;7.044;2023-06-01T00:29:27;4.40;;;1.80;;
11287;SDS011;5700;50.996;7.044;2023-06-01T00:32:30;2.13;;;1.33;;
11287;SDS011;5700;50.996;7.044;2023-06-01T00:35:32;3.97;;;1.80;;
11287;SDS011;5700;50.996;7.044;2023-06-01T00:38:33;4.05;;;1.80;;
11287;SDS011;5700;50.996;7.044;2023-06-01T00:41:35;5.60;;;1.70;;
11287;SDS011;5700;50.996;7.044;2023-06-01T00:44:36;4.50;;;1.50;;
11287;SDS011;5700;50.996;7.044;2023-06-01T00:47:40;3.92;;;1.73;;
11287;SDS011;5700;50.996;7.044;2023-06-01T00:50:43;2.63;;;1.38;;
11287;SDS011;5700;50.996;7.044;2023-06-01T00:53:44;7.55;;;2.00;;
11287;SDS011;5700;50.996;7.044;2023-06-01T00:56:45;4.85;;;1.70;;
11287;SDS011;5700;50.996;7.044;2023-06-01T00:59:47;2.50;;;1.38;;
11287;SDS011;5700;50.996;7.044;2023-06-01T01:02:49;3.17;;;1.58;;
11287;SDS011;5700;50.996;7.044;2023-06-01T01:05:52;6.18;;;1.58;;
11287;SDS011;5700;50.996;7.044;2023-06-01T01:09:01;5.50;;;1.80;;
11287;SDS011;5700;50.996;7.044;2023-06-01T01:12:08;4.20;;;1.90;;
11287;SDS011;5700;50.996;7.044;2023-06-01T01:15:15;4.80;;;1.52;;
11287;SDS011;5700;50.996;7.044;2023-06-01T01:18:24;4.00;;;1.60;;
11287;SDS011;5700;50.996;7.044;2023-06-01T01:21:29;4.63;;;1.90;;
11287;SDS011;5700;50.996;7.044;2023-06-01T01:24:35;4.45;;;1.73;;
11287;SDS011;5700;50.996;7.044;2023-06-01T01:27:50;4.53;;;1.63;;
11287;SDS011;5700;50.996;7.044;2023-06-01T01:31:04;6.78;;;1.95;;
11287;SDS011;5700;50.996;7.044;2023-06-01T01:34:06;3.63;;;1.90;;
11287;SDS011;5700;50.996;7.044;2023-06-01T01:37:09;6.53;;;1.90;;
11287;SDS011;5700;50.996;7.044;2023-06-01T01:40:10;4.70;;;1.75;;
11287;SDS011;5700;50.996;7.044;2023-06-01T01:43:12;3.53;;;1.90;;
11287;SDS011;5700;50.996;7.044;2023-06-01T01:46:18;5.07;;;1.60;;
11287;SDS011;5700;50.996;7.044;2023-06-01T01:49:26;5.85;;;1.70;;
11287;SDS011;5700;50.996;7.044;2023-06-01T01:52:31;3.13;;;1.60;;
11287;SDS011;5700;50.996;7.044;2023-06-01T01:55:33;3.38;;;1.58;;
11287;SDS011;5700;50.996;7.044;2023-06-01T01:58:35;5.50;;;1.60;;
11287;SDS011;5700;50.996;7.044;2023-06-01T02:01:39;3.80;;;1.40;;
11287;SDS011;5700;50.996;7.044;2023-06-01T02:04:42;3.53;;;1.65;;
11287;SDS011;5700;50.996;7.044;2023-06-01T02:07:46;3.47;;;2.00;;
11287;SDS011;5700;50.996;7.044;2023-06-01T02:10:47;3.83;;;1.85;;
11287;SDS011;5700;50.996;7.044;2023-06-01T02:13:49;3.15;;;1.60;;
11287;SDS011;5700;50.996;7.044;2023-06-01T02:16:51;5.60;;;1.50;;
11287;SDS011;5700;50.996;7.044;2023-06-01T02:19:53;5.32;;;2.10;;
11287;SDS011;5700;50.996;7.044;2023-06-01T02:22:55;3.65;;;1.70;;
11287;SDS011;5700;50.996;7.044;2023-06-01T02:25:56;4.68;;;1.75;;
11287;SDS011;5700;50.996;7.044;2023-06-01T02:28:58;4.93;;;1.92;;
11287;SDS011;5700;50.996;7.044;2023-06-01T02:32:00;3.75;;;1.80;;
11287;SDS011;5700;50.996;7.044;2023-06-01T02:35:02;3.58;;;1.63;;
11287;SDS011;5700;50.996;7.044;2023-06-01T02:38:03;4.03;;;1.88;;
11287;SDS011;5700;50.996;7.044;2023-06-01T02:41:05;3.72;;;1.90;;
11287;SDS011;5700;50.996;7.044;2023-06-01T02:44:06;3.75;;;1.80;;
11287;SDS011;5700;50.996;7.044;2023-06-01T02:47:09;4.50;;;1.90;;
11287;SDS011;5700;50.996;7.044;2023-06-01T02:50:10;2.90;;;1.45;;
11287;SDS011;5700;50.996;7.044;2023-06-01T02:53:12;4.78;;;1.75;;
11287;SDS011;5700;50.996;7.044;2023-06-01T02:56:13;4.25;;;1.90;;
11287;SDS011;5700;50.996;7.044;2023-06-01T02:59:15;4.30;;;2.00;;
11287;SDS011;5700;50.996;7.044;2023-06-01T03:02:18;4.28;;;1.80;;
11287;SDS011;5700;50.996;7.044;2023-06-01T03:05:19;4.38;;;1.95;;
11287;SDS011;5700;50.996;7.044;2023-06-01T03:08:21;4.22;;;1.70;;
11287;SDS011;5700;50.996;7.044;2023-06-01T03:11:24;2.85;;;1.80;;
11287;SDS011;5700;50.996;7.044;2023-06-01T03:14:26;5.38;;;2.05;;
11287;SDS011;5700;50.996;7.044;2023-06-01T03:17:29;4.78;;;2.00;;
11287;SDS011;5700;50.996;7.044;2023-06-01T03:20:31;6.60;;;2.25;;
11287;SDS011;5700;50.996;7.044;2023-06-01T03:23:33;3.22;;;1.80;;
11287;SDS011;5700;50.996;7.044;2023-06-01T03:26:35;3.80;;;1.90;;
11287;SDS011;5700;50.996;7.044;2023-06-01T03:29:37;3.03;;;1.50;;
11287;SDS011;5700;50.996;7.044;2023-06-01T03:32:40;4.78;;;1.90;;
11287;SDS011;5700;50.996;7.044;2023-06-01T03:35:42;5.25;;;2.20;;
11287;SDS011;5700;50.996;7.044;2023-06-01T03:38:44;5.50;;;2.13;;
11287;SDS011;5700;50.996;7.044;2023-06-01T03:41:45;4.93;;;1.85;;
11287;SDS011;5700;50.996;7.044;2023-06-01T03:44:47;6.10;;;2.17;;
11287;SDS011;5700;50.996;7.044;2023-06-01T03:47:50;5.95;;;2.38;;
11287;SDS011;5700;50.996;7.044;2023-06-01T03:50:51;3.72;;;1.90;;
11287;SDS011;5700;50.996;7.044;2023-06-01T03:53:53;5.68;;;2.08;;
11287;SDS011;5700;50.996;7.044;2023-06-01T03:56:54;4.90;;;1.98;;
11287;SDS011;5700;50.996;7.044;2023-06-01T03:59:56;4.18;;;2.05;;
11287;SDS011;5700;50.996;7.044;2023-06-01T04:03:01;6.93;;;2.13;;
11287;SDS011;5700;50.996;7.044;2023-06-01T04:06:07;4.20;;;1.80;;
11287;SDS011;5700;50.996;7.044;2023-06-01T04:09:12;4.55;;;2.13;;
11287;SDS011;5700;50.996;7.044;2023-06-01T04:12:14;5.82;;;2.47;;
11287;SDS011;5700;50.996;7.044;2023-06-01T04:15:17;4.32;;;2.10;;
11287;SDS011;5700;50.996;7.044;2023-06-01T04:18:20;6.53;;;2.70;;
11287;SDS011;5700;50.996;7.044;2023-06-01T04:21:22;4.43;;;2.10;;
11287;SDS011;5700;50.996;7.044;2023-06-01T04:24:23;4.43;;;2.35;;
11287;SDS011;5700;50.996;7.044;2023-06-01T04:27:25;5.13;;;2.30;;
11287;SDS011;5700;50.996;7.044;2023-06-01T04:30:27;4.30;;;2.10;;
11287;SDS011;5700;50.996;7.044;2023-06-01T04:33:30;5.45;;;2.20;;
11287;SDS011;5700;50.996;7.044;2023-06-01T04:36:32;4.47;;;2.15;;
11287;SDS011;5700;50.996;7.044;2023-06-01T04:39:37;7.40;;;3.22;;
11287;SDS011;5700;50.996;7.044;2023-06-01T04:42:39;6.45;;;2.05;;
11287;SDS011;5700;50.996;7.044;2023-06-01T04:45:42;3.90;;;2.03;;
11287;SDS011;5700;50.996;7.044;2023-06-01T04:48:45;6.40;;;2.70;;
11287;SDS011;5700;50.996;7.044;2023-06-01T04:51:47;6.40;;;2.60;;
11287;SDS011;5700;50.996;7.044;2023-06-01T04:54:51;7.78;;;2.80;;
11287;SDS011;5700;50.996;7.044;2023-06-01T04:57:52;7.55;;;3.13;;
11287;SDS011;5700;50.996;7.044;2023-06-01T05:00:54;8.82;;;3.22;;
11287;SDS011;5700;50.996;7.044;2023-06-01T05:03:57;6.82;;;3.40;;
11287;SDS011;5700;50.996;7.044;2023-06-01T05:06:58;6.97;;;3.40;;
11287;SDS011;5700;50.996;7.044;2023-06-01T05:10:00;10.70;;;3.50;;
11287;SDS011;5700;50.996;7.044;2023-06-01T05:13:05;11.45;;;4.03;;
11287;SDS011;5700;50.996;7.044;2023-06-01T05:16:07;7.22;;;3.92;;
11287;SDS011;5700;50.996;7.044;2023-06-01T05:19:10;8.02;;;4.03;;
11287;SDS011;5700;50.996;7.044;2023-06-01T05:22:12;13.10;;;4.90;;
11287;SDS011;5700;50.996;7.044;2023-06-01T05:25:14;9.93;;;3.47;;
11287;SDS011;5700;50.996;7.044;2023-06-01T05:28:16;9.98;;;4.47;;
11287;SDS011;5700;50.996;7.044;2023-06-01T05:31:18;10.60;;;4.57;;
11287;SDS011;5700;50.996;7.044;2023-06-01T05:34:21;10.50;;;4.68;;
11287;SDS011;5700;50.996;7.044;2023-06-01T05:37:23;9.35;;;4.68;;
11287;SDS011;5700;50.996;7.044;2023-06-01T05:40:24;10.82;;;5.28;;
11287;SDS011;5700;50.996;7.044;2023-06-01T05:43:26;9.88;;;5.43;;
11287;SDS011;5700;50.996;7.044;2023-06-01T05:46:27;13.50;;;5.53;;
11287;SDS011;5700;50.996;7.044;2023-06-01T05:49:30;12.20;;;6.00;;
11287;SDS011;5700;50.996;7.044;2023-06-01T05:52:32;12.48;;;6.18;;
11287;SDS011;5700;50.996;7.044;2023-06-01T05:55:33;12.35;;;6.97;;
11287;SDS011;5700;50.996;7.044;2023-06-01T05:58:35;12.82;;;6.55;;
11287;SDS011;5700;50.996;7.044;2023-06-01T06:01:36;19.27;;;7.68;;
11287;SDS011;5700;50.996;7.044;2023-06-01T06:04:39;13.88;;;8.07;;
11287;SDS011;5700;50.996;7.044;2023-06-01T06:07:41;14.05;;;8.13;;
11287;SDS011;5700;50.996;7.044;2023-06-01T06:10:42;16.63;;;7.97;;
11287;SDS011;5700;50.996;7.044;2023-06-01T06:13:44;15.70;;;7.95;;
11287;SDS011;5700;50.996;7.044;2023-06-01T06:16:45;17.58;;;8.73;;
11287;SDS011;5700;50.996;7.044;2023-06-01T06:19:48;15.75;;;9.10;;
11287;SDS011;5700;50.996;7.044;2023-06-01T06:22:50;16.55;;;8.65;;
11287;SDS011;5700;50.996;7.044;2023-06-01T06:25:52;26.65;;;11.82;;
11287;SDS011;5700;50.996;7.044;2023-06-01T06:28:53;25.38;;;12.65;;
11287;SDS011;5700;50.996;7.044;2023-06-01T06:31:55;22.20;;;12.85;;
11287;SDS011;5700;50.996;7.044;2023-06-01T06:34:57;23.52;;;12.23;;
11287;SDS011;5700;50.996;7.044;2023-06-01T06:37:59;27.27;;;13.02;;
11287;SDS011;5700;50.996;7.044;2023-06-01T06:41:01;30.60;;;13.27;;
11287;SDS011;5700;50.996;7.044;2023-06-01T06:44:02;25.08;;;13.13;;
11287;SDS011;5700;50.996;7.044;2023-06-01T06:47:04;26.88;;;12.63;;
11287;SDS011;5700;50.996;7.044;2023-06-01T06:50:07;24.63;;;12.68;;
11287;SDS011;5700;50.996;7.044;2023-06-01T06:53:10;26.30;;;13.00;;
11287;SDS011;5700;50.996;7.044;2023-06-01T06:56:11;27.02;;;13.13;;
11287;SDS011;5700;50.996;7.044;2023-06-01T06:59:13;26.40;;;14.00;;
11287;SDS011;5700;50.996;7.044;2023-06-01T07:02:15;27.75;;;13.05;;
11287;SDS011;5700;50.996;7.044;2023-06-01T07:05:17;27.95;;;13.80;;
11287;SDS011;5700;50.996;7.044;2023-06-01T07:08:19;25.75;;;13.48;;
11287;SDS011;5700;50.996;7.044;2023-06-01T07:11:21;28.58;;;13.43;;
11287;SDS011;5700;50.996;7.044;2023-06-01T07:14:23;30.45;;;15.45;;
11287;SDS011;5700;50.996;7.044;2023-06-01T07:17:25;27.25;;;13.55;;
11287;SDS011;5700;50.996;7.044;2023-06-01T07:20:27;29.67;;;13.95;;
11287;SDS011;5700;50.996;7.044;2023-06-01T07:23:29;27.23;;;13.05;;
11287;SDS011;5700;50.996;7.044;2023-06-01T07:26:31;28.75;;;14.85;;
11287;SDS011;5700;50.996;7.044;2023-06-01T07:29:32;26.38;;;13.75;;
11287;SDS011;5700;50.996;7.044;2023-06-01T07:32:33;34.05;;;16.40;;
11287;SDS011;5700;50.996;7.044;2023-06-01T07:35:37;34.28;;;14.27;;
11287;SDS011;5700;50.996;7.044;2023-06-01T07:38:38;27.83;;;14.23;;
11287;SDS011;5700;50.996;7.044;2023-06-01T07:41:40;27.38;;;13.93;;
11287;SDS011;5700;50.996;7.044;2023-06-01T07:44:42;26.83;;;13.27;;
11287;SDS011;5700;50.996;7.044;2023-06-01T07:47:44;27.35;;;13.85;;
11287;SDS011;5700;50.996;7.044;2023-06-01T07:50:47;22.08;;;13.10;;
11287;SDS011;5700;50.996;7.044;2023-06-01T07:53:48;29.13;;;14.95;;
11287;SDS011;5700;50.996;7.044;2023-06-01T07:56:50;24.95;;;13.05;;
11287;SDS011;5700;50.996;7.044;2023-06-01T07:59:51;26.58;;;13.77;;
11287;SDS011;5700;50.996;7.044;2023-06-01T08:02:53;25.88;;;13.68;;
11287;SDS011;5700;50.996;7.044;2023-06-01T08:05:55;24.33;;;13.05;;
11287;SDS011;5700;50.996;7.044;2023-06-01T08:08:59;26.50;;;13.48;;
11287;SDS011;5700;50.996;7.044;2023-06-01T08:12:00;25.48;;;12.63;;
11287;SDS011;5700;50.996;7.044;2023-06-01T08:15:02;26.83;;;13.27;;
11287;SDS011;5700;50.996;7.044;2023-06-01T08:18:04;24.20;;;12.68;;
11287;SDS011;5700;50.996;7.044;2023-06-01T08:21:07;22.85;;;12.30;;
11287;SDS011;5700;50.996;7.044;2023-06-01T08:24:09;23.55;;;11.70;;
11287;SDS011;5700;50.996;7.044;2023-06-01T08:27:19;19.23;;;10.30;;
11287;SDS011;5700;50.996;7.044;2023-06-01T08:30:21;20.40;;;11.02;;
11287;SDS011;5700;50.996;7.044;2023-06-01T08:33:23;20.77;;;11.23;;
11287;SDS011;5700;50.996;7.044;2023-06-01T08:36:28;25.95;;;12.50;;
11287;SDS011;5700;50.996;7.044;2023-06-01T08:39:29;26.60;;;12.40;;
11287;SDS011;5700;50.996;7.044;2023-06-01T08:42:33;26.60;;;12.93;;
11287;SDS011;5700;50.996;7.044;2023-06-01T08:45:39;23.67;;;11.85;;
11287;SDS011;5700;50.996;7.044;2023-06-01T08:48:41;22.33;;;11.60;;
11287;SDS011;5700;50.996;7.044;2023-06-01T08:51:45;24.63;;;11.43;;
11287;SDS011;5700;50.996;7.044;2023-06-01T08:54:50;24.92;;;11.50;;
11287;SDS011;5700;50.996;7.044;2023-06-01T08:57:51;17.25;;;9.52;;
11287;SDS011;5700;50.996;7.044;2023-06-01T09:00:54;14.77;;;8.23;;
11287;SDS011;5700;50.996;7.044;2023-06-01T09:03:55;15.40;;;8.60;;
11287;SDS011;5700;50.996;7.044;2023-06-01T09:06:58;18.33;;;9.07;;
11287;SDS011;5700;50.996;7.044;2023-06-01T09:10:00;18.40;;;9.35;;
11287;SDS011;5700;50.996;7.044;2023-06-01T09:13:01;17.27;;;8.15;;
11287;SDS011;5700;50.996;7.044;2023-06-01T09:16:03;15.60;;;8.88;;
11287;SDS011;5700;50.996;7.044;2023-06-01T09:19:06;17.13;;;8.68;;
11287;SDS011;5700;50.996;7.044;2023-06-01T09:22:10;14.35;;;8.10;;
11287;SDS011;5700;50.996;7.044;2023-06-01T09:25:12;17.88;;;9.85;;
11287;SDS011;5700;50.996;7.044;2023-06-01T09:28:15;20.70;;;10.32;;
11287;SDS011;5700;50.996;7.044;2023-06-01T09:31:24;15.15;;;8.88;;
11287;SDS011;5700;50.996;7.044;2023-06-01T09:34:35;15.77;;;8.20;;
11287;SDS011;5700;50.996;7.044;2023-06-01T09:41:06;14.88;;;8.00;;
11287;SDS011;5700;50.996;7.044;2023-06-01T09:44:07;23.25;;;11.50;;
11287;SDS011;5700;50.996;7.044;2023-06-01T09:47:09;20.70;;;11.73;;
11287;SDS011;5700;50.996;7.044;2023-06-01T09:50:13;21.17;;;11.30;;
11287;SDS011;5700;50.996;7.044;2023-06-01T09:53:41;21.80;;;11.88;;
11287;SDS011;5700;50.996;7.044;2023-06-01T09:56:43;20.23;;;11.32;;
11287;SDS011;5700;50.996;7.044;2023-06-01T09:59:45;23.23;;;11.57;;
11287;SDS011;5700;50.996;7.044;2023-06-01T10:02:47;22.95;;;11.60;;
11287;SDS011;5700;50.996;7.044;2023-06-01T10:05:49;20.23;;;12.00;;
11287;SDS011;5700;50.996;7.044;2023-06-01T10:08:52;22.02;;;12.45;;
11287;SDS011;5700;50.996;7.044;2023-06-01T10:11:54;20.92;;;12.00;;
11287;SDS011;5700;50.996;7.044;2023-06-01T10:14:56;25.23;;;12.93;;
11287;SDS011;5700;50.996;7.044;2023-06-01T10:17:58;22.10;;;12.65;;
11287;SDS011;5700;50.996;7.044;2023-06-01T10:21:00;20.05;;;11.85;;
11287;SDS011;5700;50.996;7.044;2023-06-01T10:24:03;19.38;;;10.65;;
11287;SDS011;5700;50.996;7.044;2023-06-01T10:27:06;17.25;;;10.20;;
11287;SDS011;5700;50.996;7.044;2023-06-01T10:30:12;17.65;;;9.52;;
11287;SDS011;5700;50.996;7.044;2023-06-01T10:33:14;19.85;;;9.13;;
11287;SDS011;5700;50.996;7.044;2023-06-01T10:36:15;16.48;;;9.13;;
11287;SDS011;5700;50.996;7.044;2023-06-01T10:39:26;15.77;;;8.45;;
11287;SDS011;5700;50.996;7.044;2023-06-01T10:42:36;13.65;;;6.85;;
11287;SDS011;5700;50.996;7.044;2023-06-01T10:45:39;11.80;;;6.55;;
11287;SDS011;5700;50.996;7.044;2023-06-01T10:48:50;13.63;;;6.68;;
11287;SDS011;5700;50.996;7.044;2023-06-01T10:55:27;9.38;;;5.43;;
11287;SDS011;5700;50.996;7.044;2023-06-01T10:58:29;13.55;;;6.75;;
11287;SDS011;5700;50.996;7.044;2023-06-01T11:01:30;10.40;;;5.40;;
11287;SDS011;5700;50.996;7.044;2023-06-01T11:04:35;10.57;;;5.57;;
11287;SDS011;5700;50.996;7.044;2023-06-01T11:07:38;11.43;;;5.78;;
11287;SDS011;5700;50.996;7.044;2023-06-01T11:14:04;11.93;;;5.65;;
11287;SDS011;5700;50.996;7.044;2023-06-01T11:20:29;13.05;;;5.63;;
11287;SDS011;5700;50.996;7.044;2023-06-01T11:23:39;11.27;;;5.72;;
11287;SDS011;5700;50.996;7.044;2023-06-01T11:26:43;12.05;;;5.93;;
11287;SDS011;5700;50.996;7.044;2023-06-01T11:29:46;12.40;;;5.90;;
11287;SDS011;5700;50.996;7.044;2023-06-01T11:32:50;13.38;;;6.05;;
11287;SDS011;5700;50.996;7.044;2023-06-01T11:35:57;8.60;;;4.50;;
11287;SDS011;5700;50.996;7.044;2023-06-01T11:38:58;12.00;;;5.28;;
11287;SDS011;5700;50.996;7.044;2023-06-01T11:42:06;12.07;;;4.90;;
11287;SDS011;5700;50.996;7.044;2023-06-01T11:45:13;11.15;;;5.20;;
11287;SDS011;5700;50.996;7.044;2023-06-01T11:48:21;16.90;;;5.38;;
11287;SDS011;5700;50.996;7.044;2023-06-01T11:51:22;11.57;;;5.07;;
11287;SDS011;5700;50.996;7.044;2023-06-01T11:54:24;12.27;;;5.50;;
11287;SDS011;5700;50.996;7.044;2023-06-01T11:57:29;13.30;;;5.00;;
11287;SDS011;5700;50.996;7.044;2023-06-01T12:00:30;12.82;;;5.47;;
11287;SDS011;5700;50.996;7.044;2023-06-01T12:03:32;15.10;;;5.50;;
11287;SDS011;5700;50.996;7.044;2023-06-01T12:06:33;13.85;;;6.15;;
11287;SDS011;5700;50.996;7.044;2023-06-01T12:09:36;11.65;;;5.65;;
11287;SDS011;5700;50.996;7.044;2023-06-01T12:12:39;11.05;;;5.50;;
11287;SDS011;5700;50.996;7.044;2023-06-01T12:15:41;10.07;;;5.20;;
11287;SDS011;5700;50.996;7.044;2023-06-01T12:18:43;11.38;;;5.20;;
11287;SDS011;5700;50.996;7.044;2023-06-01T12:21:46;10.45;;;5.18;;
11287;SDS011;5700;50.996;7.044;2023-06-01T12:24:49;10.85;;;4.85;;
11287;SDS011;5700;50.996;7.044;2023-06-01T12:31:10;10.75;;;5.03;;
11287;SDS011;5700;50.996;7.044;2023-06-01T12:34:16;12.55;;;5.25;;
11287;SDS011;5700;50.996;7.044;2023-06-01T12:37:19;14.38;;;6.38;;
11287;SDS011;5700;50.996;7.044;2023-06-01T12:40:21;17.05;;;5.70;;
11287;SDS011;5700;50.996;7.044;2023-06-01T12:43:25;12.23;;;5.93;;
11287;SDS011;5700;50.996;7.044;2023-06-01T12:46:27;13.02;;;6.95;;
11287;SDS011;5700;50.996;7.044;2023-06-01T12:49:29;13.73;;;7.05;;
11287;SDS011;5700;50.996;7.044;2023-06-01T12:52:31;15.23;;;6.78;;
11287;SDS011;5700;50.996;7.044;2023-06-01T12:55:32;12.15;;;6.72;;
11287;SDS011;5700;50.996;7.044;2023-06-01T12:58:35;11.02;;;6.95;;
11287;SDS011;5700;50.996;7.044;2023-06-01T13:01:37;16.08;;;7.45;;
11287;SDS011;5700;50.996;7.044;2023-06-01T13:04:39;15.30;;;8.75;;
11287;SDS011;5700;50.996;7.044;2023-06-01T13:07:40;12.82;;;8.32;;
11287;SDS011;5700;50.996;7.044;2023-06-01T13:10:42;15.27;;;8.05;;
11287;SDS011;5700;50.996;7.044;2023-06-01T13:13:45;14.48;;;8.35;;
11287;SDS011;5700;50.996;7.044;2023-06-01T13:16:46;13.93;;;8.38;;
11287;SDS011;5700;50.996;7.044;2023-06-01T13:19:48;15.48;;;7.88;;
11287;SDS011;5700;50.996;7.044;2023-06-01T13:22:49;14.07;;;7.75;;
11287;SDS011;5700;50.996;7.044;2023-06-01T13:25:52;14.27;;;7.38;;
11287;SDS011;5700;50.996;7.044;2023-06-01T13:28:55;14.57;;;7.80;;
11287;SDS011;5700;50.996;7.044;2023-06-01T13:31:56;13.93;;;7.28;;
11287;SDS011;5700;50.996;7.044;2023-06-01T13:34:58;12.80;;;6.85;;
11287;SDS011;5700;50.996;7.044;2023-06-01T13:37:59;14.50;;;5.97;;
11287;SDS011;5700;50.996;7.044;2023-06-01T13:41:01;12.75;;;6.18;;
11287;SDS011;5700;50.996;7.044;2023-06-01T13:44:04;12.27;;;5.95;;
11287;SDS011;5700;50.996;7.044;2023-06-01T13:47:06;12.50;;;6.10;;
11287;SDS011;5700;50.996;7.044;2023-06-01T13:50:08;12.77;;;5.63;;
11287;SDS011;5700;50.996;7.044;2023-06-01T13:53:11;12.88;;;5.68;;
11287;SDS011;5700;50.996;7.044;2023-06-01T13:56:12;10.95;;;5.10;;
11287;SDS011;5700;50.996;7.044;2023-06-01T13:59:15;12.07;;;5.00;;
11287;SDS011;5700;50.996;7.044;2023-06-01T14:02:17;12.00;;;5.45;;
11287;SDS011;5700;50.996;7.044;2023-06-01T14:05:20;10.45;;;4.68;;
11287;SDS011;5700;50.996;7.044;2023-06-01T14:08:21;12.13;;;5.40;;
11287;SDS011;5700;50.996;7.044;2023-06-01T14:11:23;13.30;;;6.20;;
11287;SDS011;5700;50.996;7.044;2023-06-01T14:14:26;10.80;;;5.30;;
11287;SDS011;5700;50.996;7.044;2023-06-01T14:17:28;9.88;;;4.90;;
11287;SDS011;5700;50.996;7.044;2023-06-01T14:20:30;12.65;;;5.07;;
11287;SDS011;5700;50.996;7.044;2023-06-01T14:23:31;11.45;;;5.60;;
11287;SDS011;5700;50.996;7.044;2023-06-01T14:26:33;14.48;;;5.65;;
11287;SDS011;5700;50.996;7.044;2023-06-01T14:29:36;11.85;;;4.68;;
11287;SDS011;5700;50.996;7.044;2023-06-01T14:32:37;12.98;;;5.43;;
11287;SDS011;5700;50.996;7.044;2023-06-01T14:35:39;10.32;;;5.50;;
11287;SDS011;5700;50.996;7.044;2023-06-01T14:38:40;12.85;;;5.20;;
11287;SDS011;5700;50.996;7.044;2023-06-01T14:41:42;11.40;;;5.07;;
11287;SDS011;5700;50.996;7.044;2023-06-01T14:44:44;9.98;;;4.28;;
11287;SDS011;5700;50.996;7.044;2023-06-01T14:47:46;8.32;;;4.18;;
11287;SDS011;5700;50.996;7.044;2023-06-01T14:50:47;11.52;;;4.85;;
11287;SDS011;5700;50.996;7.044;2023-06-01T14:53:49;10.32;;;4.78;;
11287;SDS011;5700;50.996;7.044;2023-06-01T14:56:50;8.85;;;3.85;;
11287;SDS011;5700;50.996;7.044;2023-06-01T14:59:53;10.02;;;4.20;;
11287;SDS011;5700;50.996;7.044;2023-06-01T15:02:55;10.05;;;4.80;;
11287;SDS011;5700;50.996;7.044;2023-06-01T15:05:56;8.70;;;4.05;;
11287;SDS011;5700;50.996;7.044;2023-06-01T15:08:58;12.35;;;4.13;;
11287;SDS011;5700;50.996;7.044;2023-06-01T15:11:59;10.27;;;4.15;;
11287;SDS011;5700;50.996;7.044;2023-06-01T15:15:02;8.20;;;3.83;;
11287;SDS011;5700;50.996;7.044;2023-06-01T15:18:04;10.50;;;4.88;;
11287;SDS011;5700;50.996;7.044;2023-06-01T15:21:05;8.35;;;3.92;;
11287;SDS011;5700;50.996;7.044;2023-06-01T15:24:07;9.07;;;4.25;;
11287;SDS011;5700;50.996;7.044;2023-06-01T15:27:08;10.85;;;4.45;;
11287;SDS011;5700;50.996;7.044;2023-06-01T15:30:11;9.88;;;4.15;;
11287;SDS011;5700;50.996;7.044;2023-06-01T15:33:13;8.48;;;3.50;;
11287;SDS011;5700;50.996;7.044;2023-06-01T15:36:15;11.30;;;4.57;;
11287;SDS011;5700;50.996;7.044;2023-06-01T15:39:18;10.13;;;4.30;;
11287;SDS011;5700;50.996;7.044;2023-06-01T15:42:19;10.25;;;4.05;;
11287;SDS011;5700;50.996;7.044;2023-06-01T15:45:22;8.40;;;4.30;;
11287;SDS011;5700;50.996;7.044;2023-06-01T15:48:24;8.73;;;4.32;;
11287;SDS011;5700;50.996;7.044;2023-06-01T15:51:25;11.20;;;3.50;;
11287;SDS011;5700;50.996;7.044;2023-06-01T15:54:27;9.00;;;4.35;;
11287;SDS011;5700;50.996;7.044;2023-06-01T15:57:29;9.00;;;5.07;;
11287;SDS011;5700;50.996;7.044;2023-06-01T16:00:32;12.05;;;4.00;;
11287;SDS011;5700;50.996;7.044;2023-06-01T16:03:34;7.63;;;4.25;;
11287;SDS011;5700;50.996;7.044;2023-06-01T16:06:36;9.60;;;4.25;;
11287;SDS011;5700;50.996;7.044;2023-06-01T16:09:37;6.05;;;3.08;;
11287;SDS011;5700;50.996;7.044;2023-06-01T16:12:39;7.65;;;3.50;;
11287;SDS011;5700;50.996;7.044;2023-06-01T16:15:42;7.32;;;3.60;;
11287;SDS011;5700;50.996;7.044;2023-06-01T16:18:43;8.75;;;4.10;;
11287;SDS011;5700;50.996;7.044;2023-06-01T16:21:45;9.20;;;3.92;;
11287;SDS011;5700;50.996;7.044;2023-06-01T16:24:46;8.65;;;3.95;;
11287;SDS011;5700;50.996;7.044;2023-06-01T16:27:48;6.93;;;3.45;;
11287;SDS011;5700;50.996;7.044;2023-06-01T16:30:52;10.48;;;3.92;;
11287;SDS011;5700;50.996;7.044;2023-06-01T16:33:53;9.27;;;3.83;;
11287;SDS011;5700;50.996;7.044;2023-06-01T16:36:55;9.73;;;4.70;;
11287;SDS011;5700;50.996;7.044;2023-06-01T16:39:56;9.15;;;4.13;;
11287;SDS011;5700;50.996;7.044;2023-06-01T16:42:58;8.95;;;4.18;;
11287;SDS011;5700;50.996;7.044;2023-06-01T16:46:01;6.03;;;3.42;;
11287;SDS011;5700;50.996;7.044;2023-06-01T16:49:03;8.85;;;4.82;;
11287;SDS011;5700;50.996;7.044;2023-06-01T16:52:05;8.57;;;3.65;;
11287;SDS011;5700;50.996;7.044;2023-06-01T16:55:07;14.02;;;4.30;;
11287;SDS011;5700;50.996;7.044;2023-06-01T16:58:10;10.52;;;4.47;;
11287;SDS011;5700;50.996;7.044;2023-06-01T17:01:12;7.30;;;4.15;;
11287;SDS011;5700;50.996;7.044;2023-06-01T17:04:14;10.38;;;4.28;;
11287;SDS011;5700;50.996;7.044;2023-06-01T17:07:16;8.52;;;4.00;;
11287;SDS011;5700;50.996;7.044;2023-06-01T17:10:17;10.05;;;3.80;;
11287;SDS011;5700;50.996;7.044;2023-06-01T17:13:19;7.97;;;4.00;;
11287;SDS011;5700;50.996;7.044;2023-06-01T17:16:22;7.20;;;4.10;;
11287;SDS011;5700;50.996;7.044;2023-06-01T17:19:23;7.18;;;3.63;;
11287;SDS011;5700;50.996;7.044;2023-06-01T17:22:26;11.55;;;4.60;;
11287;SDS011;5700;50.996;7.044;2023-06-01T17:25:27;9.40;;;4.07;;
11287;SDS011;5700;50.996;7.044;2023-06-01T17:28:29;13.00;;;5.03;;
11287;SDS011;5700;50.996;7.044;2023-06-01T17:31:32;9.00;;;3.88;;
11287;SDS011;5700;50.996;7.044;2023-06-01T17:34:34;9.98;;;4.20;;
11287;SDS011;5700;50.996;7.044;2023-06-01T17:37:35;7.70;;;3.95;;
11287;SDS011;5700;50.996;7.044;2023-06-01T17:40:37;8.95;;;3.83;;
11287;SDS011;5700;50.996;7.044;2023-06-01T17:43:38;10.07;;;4.00;;
11287;SDS011;5700;50.996;7.044;2023-06-01T17:46:41;10.68;;;3.95;;
11287;SDS011;5700;50.996;7.044;2023-06-01T17:49:43;9.88;;;3.55;;
11287;SDS011;5700;50.996;7.044;2023-06-01T17:52:44;7.95;;;3.63;;
11287;SDS011;5700;50.996;7.044;2023-06-01T17:55:45;9.93;;;3.80;;
11287;SDS011;5700;50.996;7.044;2023-06-01T17:58:47;9.13;;;3.28;;
11287;SDS011;5700;50.996;7.044;2023-06-01T18:01:49;8.68;;;4.07;;
11287;SDS011;5700;50.996;7.044;2023-06-01T18:04:51;7.28;;;3.55;;
11287;SDS011;5700;50.996;7.044;2023-06-01T18:07:53;6.65;;;3.28;;
11287;SDS011;5700;50.996;7.044;2023-06-01T18:10:54;7.78;;;3.22;;
11287;SDS011;5700;50.996;7.044;2023-06-01T18:13:56;6.35;;;3.20;;
11287;SDS011;5700;50.996;7.044;2023-06-01T18:17:00;5.80;;;3.22;;
11287;SDS011;5700;50.996;7.044;2023-06-01T18:20:01;10.15;;;3.42;;
11287;SDS011;5700;50.996;7.044;2023-06-01T18:23:04;5.90;;;2.83;;
11287;SDS011;5700;50.996;7.044;2023-06-01T18:26:05;6.13;;;3.28;;
11287;SDS011;5700;50.996;7.044;2023-06-01T18:29:09;6.05;;;3.00;;
11287;SDS011;5700;50.996;7.044;2023-06-01T18:32:12;7.30;;;2.92;;
11287;SDS011;5700;50.996;7.044;2023-06-01T18:35:13;6.00;;;2.83;;
11287;SDS011;5700;50.996;7.044;2023-06-01T18:38:15;8.05;;;3.47;;
11287;SDS011;5700;50.996;7.044;2023-06-01T18:41:19;7.50;;;3.10;;